sensor_id;sensor_type;location;lat;lon;timestamp;pressure;altitude;pressure_sealevel;temperature;humidity
75188;BME280;63762;51.334;22.108;2023-01-30T00:02:25;101606.22;;;0.23;81.11
75188;BME280;63762;51.334;22.108;2023-01-30T00:12:32;101581.80;;;0.12;81.93
75188;BME280;63762;51.334;22.108;2023-01-30T00:22:39;101545.66;;;0.11;82.25
75188;BME280;63762;51.334;22.108;2023-01-30T00:32:46;101529.04;;;0.06;82.38
75188;BME280;63762;51.334;22.108;2023-01-30T00:42:55;101530.56;;;0.16;81.78
75188;BME280;63762;51.334;22.108;2023-01-30T00:53:13;101509.69;;;0.03;82.57
75188;BME280;63762;51.334;22.108;2023-01-30T01:03:14;101481.10;;;0.18;81.89
75188;BME280;63762;51.334;22.108;2023-01-30T01:13:15;101474.31;;;0.08;81.30
75188;BME280;63762;51.334;22.108;2023-01-30T01:23:22;101452.84;;;0.20;81.76
75188;BME280;63762;51.334;22.108;2023-01-30T01:33:29;101444.80;;;0.24;81.58
75188;BME280;63762;51.334;22.108;2023-01-30T01:53:56;101383.74;;;0.32;81.10
75188;BME280;63762;51.334;22.108;2023-01-30T02:04:03;101370.43;;;0.35;80.86
75188;BME280;63762;51.334;22.108;2023-01-30T02:14:10;101353.71;;;0.33;80.64
75188;BME280;63762;51.334;22.108;2023-01-30T02:54:54;101256.48;;;0.41;79.73
75188;BME280;63762;51.334;22.108;2023-01-30T03:25:24;101207.57;;;0.25;80.87
75188;BME280;63762;51.334;22.108;2023-01-30T03:35:29;101197.97;;;0.21;80.77
75188;BME280;63762;51.334;22.108;2023-01-30T03:45:30;101205.55;;;0.33;80.21
75188;BME280;63762;51.334;22.108;2023-01-30T03:55:31;101167.84;;;0.26;81.13
75188;BME280;63762;51.334;22.108;2023-01-30T04:05:32;101149.06;;;0.34;80.83
75188;BME280;63762;51.334;22.108;2023-01-30T04:15:33;101132.38;;;0.32;80.59
75188;BME280;63762;51.334;22.108;2023-01-30T04:25:34;101120.27;;;0.25;80.21
75188;BME280;63762;51.334;22.108;2023-01-30T04:35:38;101094.41;;;0.33;80.02
75188;BME280;63762;51.334;22.108;2023-01-30T04:45:45;101073.34;;;0.30;79.96
75188;BME280;63762;51.334;22.108;2023-01-30T04:55:52;101074.18;;;0.32;79.40
75188;BME280;63762;51.334;22.108;2023-01-30T05:05:59;101059.48;;;0.23;79.46
75188;BME280;63762;51.334;22.108;2023-01-30T05:16:06;101040.76;;;0.29;79.12
75188;BME280;63762;51.334;22.108;2023-01-30T05:26:14;101028.37;;;0.30;78.83
75188;BME280;63762;51.334;22.108;2023-01-30T05:36:22;101002.22;;;0.21;78.81
75188;BME280;63762;51.334;22.108;2023-01-30T05:46:29;100983.11;;;0.13;78.86
75188;BME280;63762;51.334;22.108;2023-01-30T05:56:35;100958.28;;;0.17;78.77
75188;BME280;63762;51.334;22.108;2023-01-30T06:06:42;100937.52;;;0.04;78.60
75188;BME280;63762;51.334;22.108;2023-01-30T06:16:49;100910.48;;;-0.04;78.49
75188;BME280;63762;51.334;22.108;2023-01-30T06:26:57;100880.09;;;-0.17;79.09
75188;BME280;63762;51.334;22.108;2023-01-30T06:37:03;100877.45;;;-0.17;78.34
75188;BME280;63762;51.334;22.108;2023-01-30T06:47:12;100870.22;;;-0.38;77.91
75188;BME280;63762;51.334;22.108;2023-01-30T06:57:18;100840.89;;;-0.30;77.53
75188;BME280;63762;51.334;22.108;2023-01-30T07:07:25;100831.24;;;-0.31;75.80
75188;BME280;63762;51.334;22.108;2023-01-30T07:17:32;100817.45;;;-0.41;75.12
75188;BME280;63762;51.334;22.108;2023-01-30T07:27:39;100796.38;;;-0.42;75.42
75188;BME280;63762;51.334;22.108;2023-01-30T07:37:47;100787.88;;;-0.26;74.06
75188;BME280;63762;51.334;22.108;2023-01-30T07:47:53;100774.24;;;-0.14;72.64
75188;BME280;63762;51.334;22.108;2023-01-30T07:58:01;100782.33;;;-0.18;71.93
75188;BME280;63762;51.334;22.108;2023-01-30T08:08:08;100755.73;;;-0.14;70.37
75188;BME280;63762;51.334;22.108;2023-01-30T08:18:15;100734.14;;;-0.26;69.97
75188;BME280;63762;51.334;22.108;2023-01-30T08:28:22;100721.47;;;-0.17;70.27
75188;BME280;63762;51.334;22.108;2023-01-30T08:38:29;100702.42;;;-0.02;69.75
75188;BME280;63762;51.334;22.108;2023-01-30T08:48:38;100674.13;;;0.00;69.41
75188;BME280;63762;51.334;22.108;2023-01-30T08:58:43;100655.56;;;-0.21;70.39
75188;BME280;63762;51.334;22.108;2023-01-30T09:08:50;100641.48;;;-0.22;70.72
75188;BME280;63762;51.334;22.108;2023-01-30T09:18:58;100625.16;;;-0.10;70.20
75188;BME280;63762;51.334;22.108;2023-01-30T09:29:05;100598.72;;;-0.10;69.81
75188;BME280;63762;51.334;22.108;2023-01-30T09:39:12;100581.81;;;-0.06;69.90
75188;BME280;63762;51.334;22.108;2023-01-30T09:49:36;100589.85;;;0.15;69.13
75188;BME280;63762;51.334;22.108;2023-01-30T10:10:16;100549.43;;;0.11;70.59
75188;BME280;63762;51.334;22.108;2023-01-30T10:30:17;100529.14;;;0.12;74.57
75188;BME280;63762;51.334;22.108;2023-01-30T10:40:27;100515.22;;;-0.37;78.87
75188;BME280;63762;51.334;22.108;2023-01-30T11:00:45;100468.13;;;-0.06;79.83
75188;BME280;63762;51.334;22.108;2023-01-30T11:10:49;100454.26;;;-0.11;81.04
75188;BME280;63762;51.334;22.108;2023-01-30T11:33:37;100391.50;;;0.15;81.08
75188;BME280;63762;51.334;22.108;2023-01-30T11:43:43;100385.47;;;0.11;81.30
75188;BME280;63762;51.334;22.108;2023-01-30T11:54:00;100363.66;;;0.26;81.08
75188;BME280;63762;51.334;22.108;2023-01-30T12:04:07;100350.08;;;0.34;81.23
75188;BME280;63762;51.334;22.108;2023-01-30T12:14:20;100321.10;;;0.51;80.38
75188;BME280;63762;51.334;22.108;2023-01-30T12:24:29;100335.37;;;0.47;81.51
75188;BME280;63762;51.334;22.108;2023-01-30T12:34:32;100328.77;;;0.57;80.95
75188;BME280;63762;51.334;22.108;2023-01-30T12:44:44;100322.59;;;0.38;82.00
75188;BME280;63762;51.334;22.108;2023-01-30T12:54:53;100323.35;;;0.40;82.68
75188;BME280;63762;51.334;22.108;2023-01-30T13:35:41;100296.89;;;0.40;83.77
75188;BME280;63762;51.334;22.108;2023-01-30T13:45:46;100284.61;;;0.39;83.58
75188;BME280;63762;51.334;22.108;2023-01-30T13:55:57;100283.39;;;0.46;83.75
75188;BME280;63762;51.334;22.108;2023-01-30T14:06:12;100283.12;;;0.52;83.72
75188;BME280;63762;51.334;22.108;2023-01-30T14:16:14;100306.44;;;0.44;84.20
75188;BME280;63762;51.334;22.108;2023-01-30T14:26:15;100301.77;;;0.49;84.92
75188;BME280;63762;51.334;22.108;2023-01-30T14:36:28;100291.27;;;0.47;85.66
75188;BME280;63762;51.334;22.108;2023-01-30T14:46:40;100265.46;;;0.52;85.40
75188;BME280;63762;51.334;22.108;2023-01-30T14:57:34;100285.91;;;0.49;85.59
75188;BME280;63762;51.334;22.108;2023-01-30T15:07:03;100283.12;;;0.52;85.56
75188;BME280;63762;51.334;22.108;2023-01-30T15:17:13;100294.24;;;0.40;86.81
75188;BME280;63762;51.334;22.108;2023-01-30T15:37:39;100320.96;;;0.54;86.80
75188;BME280;63762;51.334;22.108;2023-01-30T15:58:11;100335.09;;;0.53;86.93
75188;BME280;63762;51.334;22.108;2023-01-30T16:08:24;100335.84;;;0.56;86.71
75188;BME280;63762;51.334;22.108;2023-01-30T16:18:33;100354.73;;;0.67;86.46
75188;BME280;63762;51.334;22.108;2023-01-30T16:28:36;100361.31;;;0.77;86.01
75188;BME280;63762;51.334;22.108;2023-01-30T16:38:43;100362.18;;;0.78;86.28
75188;BME280;63762;51.334;22.108;2023-01-30T16:48:45;100373.43;;;0.83;86.00
75188;BME280;63762;51.334;22.108;2023-01-30T16:58:51;100377.65;;;0.87;86.20
75188;BME280;63762;51.334;22.108;2023-01-30T17:08:54;100372.35;;;0.87;86.28
75188;BME280;63762;51.334;22.108;2023-01-30T17:18:58;100383.82;;;1.06;85.54
75188;BME280;63762;51.334;22.108;2023-01-30T17:29:00;100371.20;;;1.11;85.59
75188;BME280;63762;51.334;22.108;2023-01-30T17:39:01;100359.49;;;1.16;85.63
75188;BME280;63762;51.334;22.108;2023-01-30T17:49:02;100371.72;;;1.19;85.99
75188;BME280;63762;51.334;22.108;2023-01-30T18:09:18;100393.12;;;1.33;85.20
75188;BME280;63762;51.334;22.108;2023-01-30T18:19:19;100401.86;;;1.35;85.54
75188;BME280;63762;51.334;22.108;2023-01-30T18:29:23;100394.99;;;1.31;85.96
75188;BME280;63762;51.334;22.108;2023-01-30T18:39:24;100412.74;;;1.29;86.05
75188;BME280;63762;51.334;22.108;2023-01-30T18:49:25;100407.30;;;1.32;85.99
75188;BME280;63762;51.334;22.108;2023-01-30T18:59:26;100417.48;;;1.41;85.77
75188;BME280;63762;51.334;22.108;2023-01-30T19:09:27;100394.53;;;1.40;86.21
75188;BME280;63762;51.334;22.108;2023-01-30T19:19:29;100395.74;;;1.51;85.47
75188;BME280;63762;51.334;22.108;2023-01-30T19:29:29;100415.02;;;1.55;85.35
75188;BME280;63762;51.334;22.108;2023-01-30T19:39:30;100419.05;;;1.45;86.17
75188;BME280;63762;51.334;22.108;2023-01-30T19:49:31;100411.56;;;1.53;86.01
75188;BME280;63762;51.334;22.108;2023-01-30T19:59:33;100403.07;;;1.46;86.39
75188;BME280;63762;51.334;22.108;2023-01-30T20:09:40;100421.17;;;1.37;87.03
75188;BME280;63762;51.334;22.108;2023-01-30T20:19:47;100407.72;;;1.41;87.03
75188;BME280;63762;51.334;22.108;2023-01-30T20:29:55;100427.94;;;1.44;87.22
75188;BME280;63762;51.334;22.108;2023-01-30T20:40:02;100410.43;;;1.40;87.25
75188;BME280;63762;51.334;22.108;2023-01-30T20:50:10;100404.55;;;1.52;86.99
75188;BME280;63762;51.334;22.108;2023-01-30T21:00:17;100412.36;;;1.55;86.82
75188;BME280;63762;51.334;22.108;2023-01-30T21:10:23;100402.55;;;1.57;86.84
75188;BME280;63762;51.334;22.108;2023-01-30T21:20:30;100416.59;;;1.59;86.76
75188;BME280;63762;51.334;22.108;2023-01-30T21:30:37;100421.59;;;1.65;86.64
75188;BME280;63762;51.334;22.108;2023-01-30T21:40:49;100436.70;;;1.63;86.68
75188;BME280;63762;51.334;22.108;2023-01-30T21:51:09;100425.59;;;1.73;86.18
75188;BME280;63762;51.334;22.108;2023-01-30T22:01:11;100427.04;;;1.62;86.26
75188;BME280;63762;51.334;22.108;2023-01-30T22:11:14;100448.83;;;1.68;86.42
75188;BME280;63762;51.334;22.108;2023-01-30T22:21:20;100450.96;;;1.60;86.31
75188;BME280;63762;51.334;22.108;2023-01-30T22:31:22;100465.23;;;1.58;86.42
75188;BME280;63762;51.334;22.108;2023-01-30T22:41:30;100476.61;;;1.41;87.04
75188;BME280;63762;51.334;22.108;2023-01-30T22:51:37;100476.34;;;1.29;87.75
75188;BME280;63762;51.334;22.108;2023-01-30T23:01:46;100490.01;;;1.38;87.53
75188;BME280;63762;51.334;22.108;2023-01-30T23:11:52;100494.54;;;1.36;87.89
75188;BME280;63762;51.334;22.108;2023-01-30T23:22:05;100505.00;;;1.39;87.41
75188;BME280;63762;51.334;22.108;2023-01-30T23:32:06;100507.72;;;1.38;87.69
75188;BME280;63762;51.334;22.108;2023-01-30T23:42:10;100507.37;;;1.45;87.56
75188;BME280;63762;51.334;22.108;2023-01-30T23:52:17;100516.89;;;1.49;87.31
